createdAt,value
2022-12-28T00:01:23.916Z,3.9
2022-12-28T00:03:25.977Z,3.4
2022-12-28T00:05:28.040Z,3.4
2022-12-28T00:07:30.108Z,3.7
2022-12-28T00:09:35.364Z,5
2022-12-28T00:11:37.437Z,3.3
2022-12-28T00:13:39.515Z,5.2
2022-12-28T00:14:42.157Z,3.6
2022-12-28T00:16:44.300Z,4
2022-12-28T00:18:46.241Z,3.8
2022-12-28T00:20:48.325Z,5.3
2022-12-28T00:22:53.605Z,4.4
2022-12-28T00:24:55.655Z,4.3
2022-12-28T00:26:57.723Z,4.2
2022-12-28T00:29:04.803Z,4.9
2022-12-28T00:31:01.840Z,3.9
2022-12-28T00:33:03.908Z,4.7
2022-12-28T00:35:05.952Z,3.7
2022-12-28T00:37:12.981Z,3.8
2022-12-28T00:39:13.292Z,4.3
2022-12-28T00:41:15.354Z,4.3
2022-12-28T00:43:17.422Z,3.2
2022-12-28T00:45:19.445Z,3.1
2022-12-28T00:47:21.508Z,3.3
2022-12-28T00:49:23.561Z,4
2022-12-28T00:51:28.870Z,4.2
2022-12-28T00:53:30.912Z,4
2022-12-28T00:55:32.987Z,3.6
2022-12-28T00:57:35.055Z,3.8
2022-12-28T00:59:37.077Z,4.6
2022-12-28T01:01:39.334Z,4.8
2022-12-28T01:03:41.231Z,2.9
2022-12-28T01:05:48.036Z,3
2022-12-28T01:07:50.077Z,3.8
2022-12-28T01:09:52.217Z,3.2
2022-12-28T01:12:21.002Z,2.8
2022-12-28T01:14:23.096Z,3.9
2022-12-28T01:16:25.140Z,3.7
2022-12-28T01:18:30.410Z,2.7
2022-12-28T01:22:34.545Z,4
2022-12-28T01:32:48.073Z,3.6
2022-12-28T01:36:52.178Z,3.3
2022-12-28T01:38:54.247Z,4.5
2022-12-28T01:40:56.294Z,3.6
2022-12-28T01:42:58.365Z,3
2022-12-28T01:45:00.402Z,3.6
2022-12-28T01:47:05.745Z,2.9
2022-12-28T01:49:07.793Z,4
2022-12-28T01:51:09.860Z,4.1
2022-12-28T01:53:11.905Z,3.5
2022-12-28T01:55:13.994Z,3.9
2022-12-28T01:57:16.053Z,3.2
2022-12-28T01:59:18.105Z,4
2022-12-28T02:01:23.577Z,4.1
2022-12-28T02:03:25.475Z,3.8
2022-12-28T02:05:27.539Z,3.7
2022-12-28T02:10:40.703Z,4
2022-12-28T02:14:41.717Z,4.2
2022-12-28T02:16:43.883Z,4.3
2022-12-28T02:18:45.851Z,4.1
2022-12-28T02:20:47.900Z,5.4
2022-12-28T02:26:54.129Z,4.6
2022-12-28T02:28:59.437Z,4.2
2022-12-28T02:33:03.578Z,3.5
2022-12-28T02:37:07.705Z,3.5
2022-12-28T02:39:09.779Z,5.3
2022-12-28T02:41:11.868Z,4.3
2022-12-28T02:43:17.185Z,3.8
2022-12-28T02:45:19.239Z,4.4
2022-12-28T02:49:23.372Z,4.8
2022-12-28T02:51:25.451Z,3.8
2022-12-28T02:53:27.526Z,4
2022-12-28T02:55:29.604Z,4.2
2022-12-28T02:57:34.892Z,4.5
2022-12-28T02:59:37.025Z,5
2022-12-28T03:01:39.098Z,4.3
2022-12-28T03:04:43.753Z,3.6
2022-12-28T03:06:45.844Z,5.3
2022-12-28T03:08:47.896Z,4.9
2022-12-28T03:10:53.208Z,4.6
2022-12-28T03:12:55.272Z,3.9
2022-12-28T03:16:59.413Z,4.6
2022-12-28T03:19:01.494Z,4.6
2022-12-28T03:21:03.575Z,4.5
2022-12-28T03:23:05.627Z,4.1
2022-12-28T03:25:10.936Z,5.4
2022-12-28T03:27:12.991Z,5
2022-12-28T03:29:15.091Z,4.4
2022-12-28T03:31:17.260Z,3.7
2022-12-28T03:33:19.207Z,4.5
2022-12-28T03:35:21.273Z,3.7
2022-12-28T03:37:23.343Z,3.8
2022-12-28T03:39:28.663Z,3.7
2022-12-28T03:41:30.740Z,3.3
2022-12-28T03:43:32.830Z,3.9
2022-12-28T03:45:45.559Z,4.1
2022-12-28T03:47:36.970Z,4.5
2022-12-28T03:49:39.031Z,3.7
2022-12-28T03:51:41.100Z,3.4
2022-12-28T03:53:46.426Z,4.2
2022-12-28T03:55:48.474Z,1.8
2022-12-28T03:57:50.553Z,3.6
2022-12-28T03:58:53.192Z,4.2
2022-12-28T04:00:55.356Z,3.9
2022-12-28T04:02:57.495Z,3.1
2022-12-28T04:04:59.429Z,3.5
2022-12-28T04:07:04.724Z,3.9
2022-12-28T04:09:06.801Z,4.9
2022-12-28T04:11:08.860Z,4.4
2022-12-28T04:13:10.961Z,5.8
2022-12-28T04:15:13.014Z,4.1
2022-12-28T04:17:15.743Z,4.5
2022-12-28T04:19:17.148Z,3.7
2022-12-28T04:21:22.512Z,6
2022-12-28T04:23:24.570Z,5.9
2022-12-28T04:25:26.625Z,5.3
2022-12-28T04:27:28.711Z,4.5
2022-12-28T04:29:30.783Z,4.8
2022-12-28T04:31:33.302Z,5.4
2022-12-28T04:33:34.947Z,5.9
2022-12-28T04:35:40.274Z,5.4
2022-12-28T04:37:42.324Z,5.5
2022-12-28T04:39:55.203Z,6.1
2022-12-28T04:41:46.478Z,5
2022-12-28T04:43:48.555Z,5.3
2022-12-28T04:45:50.626Z,5.4
2022-12-28T04:47:52.724Z,5.1
2022-12-28T04:49:58.038Z,5.8
2022-12-28T04:52:00.131Z,6.4
2022-12-28T04:56:31.002Z,6.2
2022-12-28T04:58:33.111Z,5.8
2022-12-28T05:00:35.234Z,4.8
2022-12-28T05:02:42.968Z,6.5
2022-12-28T05:04:42.610Z,6.2
2022-12-28T05:06:44.676Z,6.6
2022-12-28T05:08:46.749Z,6
2022-12-28T05:10:48.833Z,5.6
2022-12-28T05:16:58.319Z,6.3
2022-12-28T05:19:00.417Z,4.9
2022-12-28T05:21:02.480Z,6.5
2022-12-28T05:23:04.568Z,5.6
2022-12-28T05:25:06.658Z,6.8
2022-12-28T05:27:08.745Z,7.5
2022-12-28T05:29:10.850Z,7.4
2022-12-28T05:31:16.233Z,6.6
2022-12-28T05:35:20.338Z,7
2022-12-28T05:37:22.556Z,7.2
2022-12-28T05:39:24.514Z,7.1
2022-12-28T05:41:26.626Z,9.1
2022-12-28T05:43:28.689Z,6.5
2022-12-28T05:45:34.020Z,9.1
2022-12-28T05:47:36.118Z,9.6
2022-12-28T05:49:38.223Z,7.4
2022-12-28T05:50:40.855Z,10
2022-12-28T05:54:45.049Z,8.5
2022-12-28T05:56:47.163Z,8.4
2022-12-28T05:58:52.481Z,8.6
2022-12-28T06:00:54.572Z,8.2
2022-12-28T06:02:56.791Z,8.6
2022-12-28T06:04:58.771Z,8.8
2022-12-28T06:07:00.882Z,8.6
2022-12-28T06:11:05.068Z,10.1
2022-12-28T06:15:12.510Z,10.2
2022-12-28T06:17:14.618Z,9.5
2022-12-28T06:19:16.705Z,9.9
2022-12-28T06:21:18.804Z,8.7
2022-12-28T06:23:20.911Z,9.8
2022-12-28T06:25:23.014Z,8.9
2022-12-28T06:27:28.341Z,10.2
2022-12-28T06:29:30.430Z,8.3
2022-12-28T06:31:32.705Z,8.2
2022-12-28T06:33:34.624Z,7.8
2022-12-28T06:35:36.749Z,8.7
2022-12-28T06:37:38.828Z,8.5
2022-12-28T06:39:40.942Z,8.8
2022-12-28T06:41:46.270Z,9.2
2022-12-28T06:43:48.365Z,7.4
2022-12-28T06:45:50.486Z,7.9
2022-12-28T06:46:53.152Z,8.5
2022-12-28T06:48:55.215Z,7.4
2022-12-28T06:50:57.331Z,8.1
2022-12-28T06:52:59.433Z,7
2022-12-28T06:55:06.305Z,8.3
2022-12-28T06:57:08.380Z,8.5
2022-12-28T06:59:10.484Z,7.2
2022-12-28T07:01:12.656Z,7.7
2022-12-28T07:03:14.717Z,8.1
2022-12-28T07:05:16.800Z,7.6
2022-12-28T07:07:18.920Z,6.7
2022-12-28T07:09:24.241Z,7.7
2022-12-28T07:11:26.361Z,6.7
2022-12-28T07:13:28.603Z,7.6
2022-12-28T07:15:30.558Z,6
2022-12-28T07:17:32.676Z,7.7
2022-12-28T07:19:34.777Z,7.2
2022-12-28T07:27:46.327Z,7
2022-12-28T07:37:59.978Z,8.2
2022-12-28T07:40:02.012Z,7.8
2022-12-28T07:42:04.117Z,9.2
2022-12-28T07:43:06.776Z,9
2022-12-28T07:45:08.858Z,9.1
2022-12-28T07:47:10.970Z,9.2
2022-12-28T07:51:18.332Z,9.8
2022-12-28T07:53:22.188Z,9
2022-12-28T07:57:24.665Z,8.3
2022-12-28T07:59:30.937Z,9.1
2022-12-28T08:01:28.905Z,8.4
2022-12-28T08:03:30.955Z,8.7
2022-12-28T08:07:38.315Z,9.4
2022-12-28T08:09:40.432Z,8.1
2022-12-28T08:11:42.549Z,8.1
2022-12-28T08:13:44.648Z,8
2022-12-28T08:15:46.814Z,10
2022-12-28T08:17:48.916Z,10.2
2022-12-28T08:21:56.354Z,9.4
2022-12-28T08:23:58.464Z,9.7
2022-12-28T08:26:00.593Z,9
2022-12-28T08:32:06.879Z,10.4
2022-12-28T08:34:12.265Z,10.8
2022-12-28T08:36:14.364Z,10.6
2022-12-28T08:38:16.492Z,11.8
2022-12-28T08:42:47.435Z,9.7
2022-12-28T08:44:49.566Z,9.9
2022-12-28T08:46:54.970Z,11
2022-12-28T08:48:57.016Z,9.5
2022-12-28T08:53:01.240Z,9.8
2022-12-28T08:55:03.382Z,9.8
2022-12-28T08:57:05.449Z,8.7
2022-12-28T08:59:07.565Z,9.2
2022-12-28T09:01:13.071Z,8.5
2022-12-28T09:03:15.299Z,8
2022-12-28T09:05:17.151Z,9.4
2022-12-28T09:07:19.265Z,8.6
2022-12-28T09:09:21.353Z,9.4
2022-12-28T09:11:23.499Z,8.4
2022-12-28T09:15:30.953Z,9.6
2022-12-28T09:17:33.088Z,8.6
2022-12-28T09:19:35.207Z,8.9
2022-12-28T09:21:37.328Z,6.6
2022-12-28T09:23:39.419Z,8.4
2022-12-28T09:25:41.546Z,7.6
2022-12-28T09:27:43.664Z,9.5
2022-12-28T09:29:49.025Z,9.9
2022-12-28T09:31:51.116Z,7.8
2022-12-28T09:34:33.686Z,9.4
2022-12-28T09:34:55.764Z,8.8
2022-12-28T09:36:57.854Z,9.2
2022-12-28T09:39:00.122Z,10.5
2022-12-28T09:41:02.159Z,10.2
2022-12-28T09:43:07.453Z,8
2022-12-28T09:45:09.579Z,8.6
2022-12-28T09:47:11.692Z,9.5
2022-12-28T09:49:13.836Z,8.2
2022-12-28T09:51:15.955Z,7.2
2022-12-28T09:53:18.034Z,8.5
2022-12-28T09:55:20.167Z,8.2
2022-12-28T09:57:25.539Z,5.4
2022-12-28T09:59:27.657Z,6.7
2022-12-28T10:01:29.931Z,6.3
2022-12-28T10:09:38.267Z,5.9
2022-12-28T10:11:43.600Z,6.5
2022-12-28T10:15:47.940Z,6.3
2022-12-28T10:17:49.965Z,7.2
2022-12-28T10:19:52.071Z,4.5
2022-12-28T10:21:54.186Z,5
2022-12-28T10:24:29.793Z,5.5
2022-12-28T10:26:01.565Z,6.6
2022-12-28T10:28:03.691Z,6.5
2022-12-28T10:30:05.813Z,5.4
2022-12-28T10:31:08.538Z,6.4
2022-12-28T10:33:13.791Z,5.6
2022-12-28T10:35:12.747Z,6.5
2022-12-28T10:37:15.594Z,5.9
2022-12-28T10:39:18.195Z,5.3
2022-12-28T10:41:20.134Z,6.1
2022-12-28T10:43:22.318Z,5.2
2022-12-28T10:45:24.418Z,5.4
2022-12-28T10:47:26.535Z,4.7
2022-12-28T10:49:28.639Z,3.6
2022-12-28T10:51:30.790Z,4.8
2022-12-28T10:53:36.133Z,5
2022-12-28T10:55:38.260Z,5.7
2022-12-28T10:59:42.492Z,4.3
2022-12-28T11:01:44.790Z,4
2022-12-28T11:03:46.765Z,4.6
2022-12-28T11:09:56.334Z,3.8
2022-12-28T11:11:58.431Z,4.1
2022-12-28T11:16:02.799Z,3.8
2022-12-28T11:18:04.832Z,4.7
2022-12-28T11:22:12.301Z,5.1
2022-12-28T11:24:14.417Z,3.7
2022-12-28T11:26:16.549Z,3.7
2022-12-28T11:27:19.233Z,4.6
2022-12-28T11:29:21.352Z,3.2
2022-12-28T11:31:23.534Z,3.5
2022-12-28T11:33:25.588Z,2.3
2022-12-28T11:35:30.968Z,3.1
2022-12-28T11:37:33.065Z,3
2022-12-28T11:39:35.195Z,2.8
2022-12-28T11:41:37.323Z,3.2
2022-12-28T11:43:39.429Z,2.8
2022-12-28T11:47:43.694Z,2
2022-12-28T11:49:48.969Z,2.7
2022-12-28T11:51:51.041Z,2.6
2022-12-28T11:53:53.200Z,1.7
2022-12-28T11:55:55.294Z,2
2022-12-28T12:02:01.800Z,1.8
2022-12-28T12:04:07.047Z,1.8
2022-12-28T12:08:11.284Z,1.9
2022-12-28T12:10:13.429Z,1.9
2022-12-28T12:12:17.921Z,2
2022-12-28T12:14:17.685Z,2.3
2022-12-28T12:18:25.159Z,1.6
2022-12-28T12:20:27.274Z,1.6
2022-12-28T12:22:29.408Z,2.3
2022-12-28T12:24:58.229Z,2.6
2022-12-28T12:27:00.255Z,2.6
2022-12-28T12:29:02.428Z,1.4
2022-12-28T12:31:07.805Z,1.7
2022-12-28T12:37:14.116Z,1.6
2022-12-28T12:39:16.247Z,2.9
2022-12-28T12:43:20.471Z,2.8
2022-12-28T12:45:25.871Z,2.9
2022-12-28T12:47:29.524Z,2.3
2022-12-28T12:49:31.623Z,2.7
2022-12-28T12:51:33.767Z,2
2022-12-28T12:53:35.876Z,2.5
2022-12-28T12:59:45.513Z,2.2
2022-12-28T13:01:47.802Z,3.1
2022-12-28T13:03:49.732Z,3.1
2022-12-28T13:07:53.987Z,3.2
2022-12-28T13:09:56.135Z,3.1
2022-12-28T13:14:03.626Z,3.1
2022-12-28T13:19:10.554Z,3.6
2022-12-28T13:21:13.081Z,4.4
2022-12-28T13:23:14.777Z,3.3
2022-12-28T13:25:16.925Z,3.9
2022-12-28T13:27:22.312Z,3.9
2022-12-28T13:29:24.426Z,3.9
2022-12-28T13:31:26.607Z,3.6
2022-12-28T13:33:28.708Z,3.5
2022-12-28T13:37:32.995Z,3.6
2022-12-28T13:39:41.585Z,3.6
2022-12-28T13:43:42.593Z,3.9
2022-12-28T13:49:48.980Z,4.1
2022-12-28T13:51:53.566Z,3.6
2022-12-28T13:53:53.247Z,5.1
2022-12-28T13:55:58.627Z,4
2022-12-28T13:58:00.755Z,3.6
2022-12-28T14:00:02.878Z,4.2
2022-12-28T14:10:16.772Z,2.9
2022-12-28T14:12:18.921Z,4.4
2022-12-28T14:14:21.041Z,4
2022-12-28T14:15:23.710Z,3.6
2022-12-28T14:17:25.848Z,3.5
2022-12-28T14:19:27.960Z,3.8
2022-12-28T14:21:30.085Z,3.7
2022-12-28T14:23:35.377Z,3.5
2022-12-28T14:25:37.492Z,3.4
2022-12-28T14:27:39.610Z,3.8
2022-12-28T14:29:41.785Z,3.5
2022-12-28T14:31:43.891Z,4.7
2022-12-28T14:33:46.028Z,4.3
2022-12-28T14:35:48.161Z,3.4
2022-12-28T14:37:53.513Z,3.5
2022-12-28T14:39:55.624Z,5
2022-12-28T14:41:57.792Z,4.6
2022-12-28T14:43:59.924Z,3.9
2022-12-28T14:46:07.692Z,3.6
2022-12-28T14:48:04.181Z,3.7
2022-12-28T14:50:06.335Z,3.5
2022-12-28T14:52:11.706Z,3.1
2022-12-28T14:54:13.824Z,3.7
2022-12-28T14:56:15.953Z,3.3
2022-12-28T14:58:18.097Z,3
2022-12-28T15:00:20.123Z,3.2
2022-12-28T15:02:22.341Z,3.7
2022-12-28T15:04:24.375Z,2.3
2022-12-28T15:06:29.744Z,3.5
2022-12-28T15:08:31.878Z,3
2022-12-28T15:10:34.002Z,3.2
2022-12-28T15:11:36.691Z,2.6
2022-12-28T15:13:38.860Z,2.7
2022-12-28T15:15:40.998Z,2.1
2022-12-28T15:17:43.091Z,4.1
2022-12-28T15:19:48.453Z,2.7
2022-12-28T15:21:50.588Z,2.5
2022-12-28T15:23:52.739Z,2.7
2022-12-28T15:25:54.867Z,2.4
2022-12-28T15:27:57.017Z,2.1
2022-12-28T15:30:06.755Z,2.5
2022-12-28T15:32:01.268Z,3
2022-12-28T15:34:06.545Z,2.7
2022-12-28T15:36:13.616Z,2.9
2022-12-28T15:38:10.759Z,2.2
2022-12-28T15:40:12.874Z,4
2022-12-28T15:42:14.992Z,2.3
2022-12-28T15:44:17.131Z,3.2
2022-12-28T15:48:24.623Z,2.4
2022-12-28T15:50:26.777Z,2.4
2022-12-28T15:52:28.897Z,2.6
2022-12-28T15:54:31.032Z,2.4
2022-12-28T15:56:33.197Z,2.3
2022-12-28T15:58:35.298Z,3.2
2022-12-28T16:00:40.429Z,2
2022-12-28T16:02:43.017Z,2.2
2022-12-28T16:04:44.855Z,1.9
2022-12-28T16:06:47.003Z,3.3
2022-12-28T16:09:15.722Z,2
2022-12-28T16:11:17.894Z,2.4
2022-12-28T16:13:19.996Z,2.3
2022-12-28T16:15:25.372Z,1.6
2022-12-28T16:17:27.420Z,2
2022-12-28T16:19:29.452Z,2.5
2022-12-28T16:21:31.627Z,2.5
2022-12-28T16:23:33.796Z,1.9
2022-12-28T16:25:35.914Z,2.1
2022-12-28T16:27:38.033Z,2.9
2022-12-28T16:29:43.408Z,2.1
2022-12-28T16:31:45.572Z,2.2
2022-12-28T16:33:47.723Z,2.4
2022-12-28T16:35:53.072Z,1.9
2022-12-28T16:37:51.999Z,2.9
2022-12-28T16:39:54.140Z,3.5
2022-12-28T16:41:56.333Z,3.2
2022-12-28T16:48:05.961Z,4
2022-12-28T16:56:14.512Z,2.4
2022-12-28T17:03:26.861Z,3
2022-12-28T17:05:28.983Z,3.2
2022-12-28T17:07:31.093Z,2.7
2022-12-28T17:09:33.134Z,2.9
2022-12-28T17:11:38.506Z,3.3
2022-12-28T17:13:40.641Z,3
2022-12-28T17:15:42.768Z,2.7
2022-12-28T17:17:44.896Z,2.8
2022-12-28T17:19:47.009Z,2.7
2022-12-28T17:21:49.169Z,3.1
2022-12-28T17:23:51.281Z,3.3
2022-12-28T17:25:56.628Z,3
2022-12-28T17:36:07.265Z,3.6
2022-12-28T17:46:21.202Z,3.1
2022-12-28T17:48:23.223Z,3.7
2022-12-28T17:50:25.371Z,4.3
2022-12-28T17:52:27.488Z,3.4
2022-12-28T17:54:32.904Z,3.8
2022-12-28T17:56:34.944Z,2.7
2022-12-28T17:58:37.100Z,3.3
2022-12-28T17:59:39.721Z,3.6
2022-12-28T18:03:44.034Z,4.1
2022-12-28T18:05:46.125Z,3.7
2022-12-28T18:09:53.611Z,4.4
2022-12-28T18:11:55.731Z,4.5
2022-12-28T18:13:57.856Z,2.8
2022-12-28T18:15:59.963Z,2.7
2022-12-28T18:22:09.544Z,3.1
2022-12-28T18:24:11.653Z,3.4
2022-12-28T18:26:13.799Z,3.7
2022-12-28T18:30:18.042Z,2.7
2022-12-28T18:32:20.141Z,2.9
2022-12-28T18:34:22.288Z,3.3
2022-12-28T18:36:27.661Z,3
2022-12-28T18:38:29.799Z,2.6
2022-12-28T18:44:37.636Z,2.2
2022-12-28T18:46:39.901Z,3.4
2022-12-28T18:48:41.901Z,2.5
2022-12-28T18:50:47.240Z,2.4
2022-12-28T18:52:49.377Z,1.6
2022-12-28T18:54:51.492Z,3.6
2022-12-28T18:57:56.291Z,2.5
2022-12-28T18:59:58.390Z,2.7
2022-12-28T19:02:09.922Z,2.3
2022-12-28T19:04:06.151Z,1.9
2022-12-28T19:06:08.046Z,2.8
2022-12-28T19:08:10.208Z,2.7
2022-12-28T19:10:13.497Z,2.9
2022-12-28T19:12:14.376Z,2.4
2022-12-28T19:14:16.543Z,2.4
2022-12-28T19:16:18.678Z,2.3
2022-12-28T19:18:23.984Z,2.6
2022-12-28T19:20:26.092Z,3.6
2022-12-28T19:22:28.232Z,2.6
2022-12-28T19:24:30.387Z,2.2
2022-12-28T19:26:32.590Z,2
2022-12-28T19:28:34.617Z,2.6
2022-12-28T19:30:36.759Z,2.3
2022-12-28T19:32:42.089Z,2.6
2022-12-28T19:34:44.230Z,4.3
2022-12-28T19:36:46.354Z,2.2
2022-12-28T19:38:48.476Z,2.3
2022-12-28T19:40:50.598Z,2.8
2022-12-28T19:42:52.757Z,2.4
2022-12-28T19:44:54.852Z,3
2022-12-28T19:47:00.309Z,2.8
2022-12-28T19:49:02.383Z,3.3
2022-12-28T19:51:04.442Z,3.5
2022-12-28T19:53:33.285Z,3.7
2022-12-28T20:03:46.998Z,4.3
2022-12-28T20:07:51.176Z,3.8
2022-12-28T20:09:53.324Z,4.4
2022-12-28T20:11:55.467Z,3.7
2022-12-28T20:14:00.793Z,4.2
2022-12-28T20:16:03.074Z,4.3
2022-12-28T20:18:05.051Z,4.6
2022-12-28T20:20:07.175Z,4.2
2022-12-28T20:22:09.300Z,3.5
2022-12-28T20:24:11.415Z,4.8
2022-12-28T20:26:13.549Z,5.1
2022-12-28T20:28:18.890Z,4.4
2022-12-28T20:30:20.937Z,5
2022-12-28T20:32:23.043Z,3.3
2022-12-28T20:34:25.158Z,5.2
2022-12-28T20:36:27.292Z,3.7
2022-12-28T20:38:29.437Z,4
2022-12-28T20:42:36.924Z,5
2022-12-28T20:44:39.054Z,4.3
2022-12-28T20:46:41.251Z,5.3
2022-12-28T20:51:48.148Z,5.1
2022-12-28T20:53:50.212Z,5.3
2022-12-28T20:57:57.688Z,5.7
2022-12-28T20:59:59.815Z,5
2022-12-28T21:02:02.075Z,5
2022-12-28T21:04:03.957Z,5.2
2022-12-28T21:06:06.006Z,4.9
2022-12-28T21:08:08.193Z,4.4
2022-12-28T21:10:13.515Z,5.5
2022-12-28T21:12:15.660Z,5.4
2022-12-28T21:14:17.799Z,5.4
2022-12-28T21:16:19.986Z,5.4
2022-12-28T21:18:22.068Z,5.2
2022-12-28T21:20:24.199Z,5
2022-12-28T21:22:26.351Z,5.2
2022-12-28T21:24:31.721Z,5.7
2022-12-28T21:26:33.864Z,4.8
2022-12-28T21:28:36.010Z,5.3
2022-12-28T21:30:38.129Z,4
2022-12-28T21:32:40.253Z,4.2
2022-12-28T21:34:42.394Z,4.6
2022-12-28T21:36:44.540Z,5.5
2022-12-28T21:38:49.923Z,4.5
2022-12-28T21:40:52.062Z,4.4
2022-12-28T21:42:54.210Z,4.1
2022-12-28T21:43:56.880Z,4.5
2022-12-28T21:46:01.857Z,3.7
2022-12-28T21:48:01.151Z,5.2
2022-12-28T21:50:03.272Z,5.1
2022-12-28T21:52:08.665Z,5.6
2022-12-28T21:54:10.803Z,4.6
2022-12-28T21:56:12.941Z,5.7
2022-12-28T21:58:15.103Z,3.8
2022-12-28T22:02:19.509Z,3.1
2022-12-28T22:06:26.898Z,3.8
2022-12-28T22:08:29.023Z,3.9
2022-12-28T22:10:31.193Z,3.9
2022-12-28T22:12:33.340Z,3.7
2022-12-28T22:14:35.483Z,3.3
2022-12-28T22:16:37.684Z,4.2
2022-12-28T22:19:02.101Z,4
2022-12-28T22:20:45.077Z,4.9
2022-12-28T22:22:47.215Z,4.3
2022-12-28T22:24:49.353Z,4.6
2022-12-28T22:26:51.497Z,4.6
2022-12-28T22:28:53.654Z,4.7
2022-12-28T22:30:55.839Z,3.8
2022-12-28T22:32:57.958Z,4.4
2022-12-28T22:35:03.345Z,4.1
2022-12-28T22:37:05.485Z,3.8
2022-12-28T22:39:07.637Z,4.5
2022-12-28T22:40:10.209Z,3.4
2022-12-28T22:42:12.416Z,5.4
2022-12-28T22:44:14.483Z,5.2
2022-12-28T22:46:16.667Z,3.8
2022-12-28T22:48:21.924Z,4.3
2022-12-28T22:50:24.068Z,4.2
2022-12-28T22:52:26.219Z,3.9
2022-12-28T22:54:28.358Z,4.4
2022-12-28T22:56:30.500Z,4.3
2022-12-28T22:58:32.668Z,4.6
2022-12-28T23:00:34.703Z,4
2022-12-28T23:02:40.268Z,4.4
2022-12-28T23:04:42.243Z,4.8
2022-12-28T23:06:44.377Z,4.7
2022-12-28T23:08:46.562Z,4.3
2022-12-28T23:10:48.668Z,4.2
2022-12-28T23:14:52.964Z,4.3
2022-12-28T23:16:58.340Z,4.5
2022-12-28T23:19:00.393Z,4.7
2022-12-28T23:21:02.447Z,3.7
2022-12-28T23:25:06.643Z,3.8
2022-12-28T23:27:08.691Z,4.6
2022-12-28T23:29:10.759Z,3.8
2022-12-28T23:31:16.182Z,3.2
2022-12-28T23:33:18.265Z,3.3
2022-12-28T23:35:20.330Z,4.3
2022-12-28T23:37:49.222Z,3.4
2022-12-28T23:39:51.404Z,3
2022-12-28T23:41:53.368Z,3.6
2022-12-28T23:43:58.765Z,3.9
2022-12-28T23:46:00.927Z,3
2022-12-28T23:48:03.008Z,3.4
2022-12-28T23:50:05.287Z,3.8
2022-12-28T23:52:07.295Z,3.2
2022-12-28T23:54:09.465Z,3.4
2022-12-28T23:56:11.528Z,2.8
2022-12-28T23:58:16.937Z,3.7
